Bbm — CRGT — position and weather

sailwx.info

Track history (hours):
 
Tides and Currents Weather Stations Pressure Air Temp Water Temp Dewpoint Dewpoint Depression Visibility Wind Speed Wind Dir Waves Ship Positions

Bbm

Last reported at 2017-Nov-19 14:15 UTC. Time now 2017-Nov-21 21:16 UTC.
Position N 38°42' W 009°25'.

Length 14 m.

Type: Sailing vessel. MMSI: 263912000.

Date/timePositionNaut miles runAvg speedWind from/ knotsBaromVisibWave heightAir tempDewpointWater temp
2017-Nov-19 14:15N 38°42' W 009°25'1 0.9
2017-Nov-19 12:56N 38°41' W 009°24'3 5.5
2017-Nov-19 12:24N 38°39' W 009°26'1 3.0
2017-Nov-19 12:00N 38°38' W 009°26'2 3.7
2017-Nov-19 11:30N 38°39' W 009°25'2 3.5
2017-Nov-19 10:54N 38°42' W 009°25'0 0.0
2017-Nov-18 15:48N 38°42' W 009°25'0 0.0
2017-Nov-17 14:24N 38°42' W 009°25'0 0.0
2017-Nov-17 13:52N 38°42' W 009°25'0 0.0
2017-Nov-15 13:59N 38°42' W 009°25'0 0.0
2017-Nov-15 13:23N 38°42' W 009°25'0 0.0
2017-Nov-14 17:54N 38°42' W 009°25'0 0.0
2017-Nov-12 14:57N 38°42' W 009°25'1 1.9
2017-Nov-12 14:27N 38°41' W 009°24'2 4.3
2017-Nov-12 13:58N 38°40' W 009°27'1 2.6
2017-Nov-12 13:25N 38°41' W 009°27'2 3.5
2017-Nov-12 12:59N 38°40' W 009°26'1 1.9
2017-Nov-12 12:29N 38°40' W 009°25'1 1.2
2017-Nov-12 11:58N 38°40' W 009°25'1 2.7
2017-Nov-12 11:29N 38°42' W 009°25'0 0.5
2017-Nov-12 10:56N 38°42' W 009°25'0 0.0
2017-Nov-12 10:29N 38°42' W 009°25'0 0.0
2017-Nov-12 09:56N 38°42' W 009°25'0 0.0
2017-Nov-12 09:14N 38°42' W 009°25'0 0.0
2017-Nov-12 08:50N 38°42' W 009°25'0 0.0
2017-Nov-12 08:23N 38°42' W 009°25'0 0.0
2017-Nov-12 07:56N 38°42' W 009°25'0 0.0
2017-Nov-12 06:08N 38°42' W 009°25'0 0.0
2017-Nov-12 05:50N 38°42' W 009°25'0 0.0
2017-Nov-12 05:20N 38°42' W 009°25'0 0.0
2017-Nov-12 04:56N 38°42' W 009°25'0 0.0
2017-Nov-12 04:26N 38°42' W 009°25'0 0.0
2017-Nov-12 03:44N 38°42' W 009°25'0 0.0
2017-Nov-12 02:50N 38°42' W 009°25'0 0.0
2017-Nov-12 02:14N 38°42' W 009°25'0 0.0
2017-Nov-12 01:56N 38°42' W 009°25'0 0.0
2017-Nov-12 01:14N 38°42' W 009°25'0 0.0
2017-Nov-12 00:56N 38°42' W 009°25'0 0.0
2017-Nov-12 00:26N 38°42' W 009°25'0 0.0
2017-Nov-11 23:56N 38°42' W 009°25'0 0.0
2017-Nov-11 23:26N 38°42' W 009°25'0 0.0
2017-Nov-11 22:56N 38°42' W 009°25'0 0.0
2017-Nov-11 22:17N 38°42' W 009°25'0 0.0
2017-Nov-11 21:56N 38°42' W 009°25'0 0.0
2017-Nov-11 21:20N 38°42' W 009°25'0 0.0
2017-Nov-11 20:50N 38°42' W 009°25'0 0.0
2017-Nov-11 17:32N 38°42' W 009°25'0 0.1
2017-Nov-11 17:26N 38°42' W 009°25'0 0.0
2017-Nov-11 16:56N 38°42' W 009°25'0 0.0
2017-Nov-11 16:20N 38°42' W 009°25'0 0.0
2017-Nov-11 15:59N 38°42' W 009°25'0 0.0
2017-Nov-11 14:38N 38°42' W 009°25'0 0.0
2017-Nov-11 14:29N 38°42' W 009°25'0 0.0
2017-Nov-11 13:53N 38°42' W 009°25'0 0.0
2017-Nov-11 11:11N 38°42' W 009°25'0 0.0
2017-Nov-11 10:56N 38°42' W 009°25'0 0.0
2017-Nov-11 10:26N 38°42' W 009°25'0 0.0
2017-Nov-11 09:53N 38°42' W 009°25'0 0.0
2017-Nov-11 09:29N 38°42' W 009°25'0 0.0
2017-Nov-11 08:50N 38°42' W 009°25'0 0.0
2017-Nov-11 06:47N 38°42' W 009°25'0 0.0
2017-Nov-11 06:20N 38°42' W 009°25'0 0.0
2017-Nov-11 05:50N 38°42' W 009°25'0 0.0
2017-Nov-11 05:26N 38°42' W 009°25'0 0.0
2017-Nov-11 04:53N 38°42' W 009°25'0 0.0
2017-Nov-11 03:38N 38°42' W 009°25'0 0.0
2017-Nov-11 02:05N 38°42' W 009°25'0 0.1
2017-Nov-11 01:59N 38°42' W 009°25'0 0.0
2017-Nov-11 01:20N 38°42' W 009°25'0 0.0
2017-Nov-11 00:56N 38°42' W 009°25'0 0.0
2017-Nov-11 00:23N 38°42' W 009°25'0 0.0
2017-Nov-10 23:44N 38°42' W 009°25'0 0.0
2017-Nov-10 22:20N 38°42' W 009°25'0 0.0
2017-Nov-10 21:56N 38°42' W 009°25'0 0.0
2017-Nov-10 19:23N 38°42' W 009°25'0 0.0
2017-Nov-10 18:56N 38°42' W 009°25'0 0.0
2017-Nov-10 17:08N 38°42' W 009°25'0 0.0
2017-Nov-10 16:50N 38°42' W 009°25'0 0.0
2017-Nov-10 16:08N 38°42' W 009°25'0 0.0
2017-Nov-10 10:48N 38°42' W 009°25'0 0.0
2017-Nov-10 09:12N 38°42' W 009°25'0 0.0
2017-Nov-10 09:00N 38°42' W 009°25'0 0.0
2017-Nov-10 08:30N 38°42' W 009°25'0 0.0
2017-Nov-10 07:06N 38°42' W 009°25'0 0.0
2017-Nov-10 06:51N 38°42' W 009°25'0 0.0
2017-Nov-10 06:18N 38°42' W 009°25'0 0.0
2017-Nov-10 05:51N 38°42' W 009°25'0 0.0
2017-Nov-10 05:27N 38°42' W 009°25'0 0.0
2017-Nov-10 04:30N 38°42' W 009°25'0 0.0
2017-Nov-10 04:00N 38°42' W 009°25'0 0.0
2017-Nov-10 03:27N 38°42' W 009°25'0 0.0
2017-Nov-10 01:03N 38°42' W 009°25'0 0.1
2017-Nov-10 01:00N 38°42' W 009°25'0 0.0
2017-Nov-09 23:30N 38°42' W 009°25'0 0.0
2017-Nov-09 22:48N 38°42' W 009°25'0 0.0
2017-Nov-09 22:24N 38°42' W 009°25'0 0.0
2017-Nov-09 21:42N 38°42' W 009°25'0 0.0
2017-Nov-09 21:12N 38°42' W 009°25'0 0.0
2017-Nov-09 20:57N 38°42' W 009°25'0 0.0
2017-Nov-09 19:05N 38°42' W 009°25'0 0.0
2017-Nov-09 18:47N 38°42' W 009°25'0 0.0
2017-Nov-09 17:41N 38°42' W 009°25'0 0.0
2017-Nov-09 17:23N 38°42' W 009°25'0 0.0
2017-Nov-09 16:59N 38°42' W 009°25'0 0.0
2017-Nov-09 16:11N 38°42' W 009°25'  
Track history (hours):
 
Tides and Currents Weather Stations Pressure Air Temp Water Temp Dewpoint Dewpoint Depression Visibility Wind Speed Wind Dir Waves Ship Positions

Bbm

Last reported at 2017-Nov-19 14:15 UTC. Time now 2017-Nov-21 21:16 UTC.
Position N 38°42' W 009°25'.

Length 14 m.

Type: Sailing vessel. MMSI: 263912000.

Date/timePositionNaut miles runAvg speedWind from/ knotsBaromVisibWave heightAir tempDewpointWater temp
2017-Nov-19 14:15N 38°42' W 009°25'1 0.9
2017-Nov-19 12:56N 38°41' W 009°24'3 5.5
2017-Nov-19 12:24N 38°39' W 009°26'1 3.0
2017-Nov-19 12:00N 38°38' W 009°26'2 3.7
2017-Nov-19 11:30N 38°39' W 009°25'2 3.5
2017-Nov-19 10:54N 38°42' W 009°25'0 0.0
2017-Nov-18 15:48N 38°42' W 009°25'0 0.0
2017-Nov-17 14:24N 38°42' W 009°25'0 0.0
2017-Nov-17 13:52N 38°42' W 009°25'0 0.0
2017-Nov-15 13:59N 38°42' W 009°25'0 0.0
2017-Nov-15 13:23N 38°42' W 009°25'0 0.0
2017-Nov-14 17:54N 38°42' W 009°25'0 0.0
2017-Nov-12 14:57N 38°42' W 009°25'1 1.9
2017-Nov-12 14:27N 38°41' W 009°24'2 4.3
2017-Nov-12 13:58N 38°40' W 009°27'1 2.6
2017-Nov-12 13:25N 38°41' W 009°27'2 3.5
2017-Nov-12 12:59N 38°40' W 009°26'1 1.9
2017-Nov-12 12:29N 38°40' W 009°25'1 1.2
2017-Nov-12 11:58N 38°40' W 009°25'1 2.7
2017-Nov-12 11:29N 38°42' W 009°25'0 0.5
2017-Nov-12 10:56N 38°42' W 009°25'0 0.0
2017-Nov-12 10:29N 38°42' W 009°25'0 0.0
2017-Nov-12 09:56N 38°42' W 009°25'0 0.0
2017-Nov-12 09:14N 38°42' W 009°25'0 0.0
2017-Nov-12 08:50N 38°42' W 009°25'0 0.0
2017-Nov-12 08:23N 38°42' W 009°25'0 0.0
2017-Nov-12 07:56N 38°42' W 009°25'0 0.0
2017-Nov-12 06:08N 38°42' W 009°25'0 0.0
2017-Nov-12 05:50N 38°42' W 009°25'0 0.0
2017-Nov-12 05:20N 38°42' W 009°25'0 0.0
2017-Nov-12 04:56N 38°42' W 009°25'0 0.0
2017-Nov-12 04:26N 38°42' W 009°25'0 0.0
2017-Nov-12 03:44N 38°42' W 009°25'0 0.0
2017-Nov-12 02:50N 38°42' W 009°25'0 0.0
2017-Nov-12 02:14N 38°42' W 009°25'0 0.0
2017-Nov-12 01:56N 38°42' W 009°25'0 0.0
2017-Nov-12 01:14N 38°42' W 009°25'0 0.0
2017-Nov-12 00:56N 38°42' W 009°25'0 0.0
2017-Nov-12 00:26N 38°42' W 009°25'0 0.0
2017-Nov-11 23:56N 38°42' W 009°25'0 0.0
2017-Nov-11 23:26N 38°42' W 009°25'0 0.0
2017-Nov-11 22:56N 38°42' W 009°25'0 0.0
2017-Nov-11 22:17N 38°42' W 009°25'0 0.0
2017-Nov-11 21:56N 38°42' W 009°25'0 0.0
2017-Nov-11 21:20N 38°42' W 009°25'0 0.0
2017-Nov-11 20:50N 38°42' W 009°25'0 0.0
2017-Nov-11 17:32N 38°42' W 009°25'0 0.1
2017-Nov-11 17:26N 38°42' W 009°25'0 0.0
2017-Nov-11 16:56N 38°42' W 009°25'0 0.0
2017-Nov-11 16:20N 38°42' W 009°25'0 0.0
2017-Nov-11 15:59N 38°42' W 009°25'0 0.0
2017-Nov-11 14:38N 38°42' W 009°25'0 0.0
2017-Nov-11 14:29N 38°42' W 009°25'0 0.0
2017-Nov-11 13:53N 38°42' W 009°25'0 0.0
2017-Nov-11 11:11N 38°42' W 009°25'0 0.0
2017-Nov-11 10:56N 38°42' W 009°25'0 0.0
2017-Nov-11 10:26N 38°42' W 009°25'0 0.0
2017-Nov-11 09:53N 38°42' W 009°25'0 0.0
2017-Nov-11 09:29N 38°42' W 009°25'0 0.0
2017-Nov-11 08:50N 38°42' W 009°25'0 0.0
2017-Nov-11 06:47N 38°42' W 009°25'0 0.0
2017-Nov-11 06:20N 38°42' W 009°25'0 0.0
2017-Nov-11 05:50N 38°42' W 009°25'0 0.0
2017-Nov-11 05:26N 38°42' W 009°25'0 0.0
2017-Nov-11 04:53N 38°42' W 009°25'0 0.0
2017-Nov-11 03:38N 38°42' W 009°25'0 0.0
2017-Nov-11 02:05N 38°42' W 009°25'0 0.1
2017-Nov-11 01:59N 38°42' W 009°25'0 0.0
2017-Nov-11 01:20N 38°42' W 009°25'0 0.0
2017-Nov-11 00:56N 38°42' W 009°25'0 0.0
2017-Nov-11 00:23N 38°42' W 009°25'0 0.0
2017-Nov-10 23:44N 38°42' W 009°25'0 0.0
2017-Nov-10 22:20N 38°42' W 009°25'0 0.0
2017-Nov-10 21:56N 38°42' W 009°25'0 0.0
2017-Nov-10 19:23N 38°42' W 009°25'0 0.0
2017-Nov-10 18:56N 38°42' W 009°25'0 0.0
2017-Nov-10 17:08N 38°42' W 009°25'0 0.0
2017-Nov-10 16:50N 38°42' W 009°25'0 0.0
2017-Nov-10 16:08N 38°42' W 009°25'0 0.0
2017-Nov-10 10:48N 38°42' W 009°25'0 0.0
2017-Nov-10 09:12N 38°42' W 009°25'0 0.0
2017-Nov-10 09:00N 38°42' W 009°25'0 0.0
2017-Nov-10 08:30N 38°42' W 009°25'0 0.0
2017-Nov-10 07:06N 38°42' W 009°25'0 0.0
2017-Nov-10 06:51N 38°42' W 009°25'0 0.0
2017-Nov-10 06:18N 38°42' W 009°25'0 0.0
2017-Nov-10 05:51N 38°42' W 009°25'0 0.0
2017-Nov-10 05:27N 38°42' W 009°25'0 0.0
2017-Nov-10 04:30N 38°42' W 009°25'0 0.0
2017-Nov-10 04:00N 38°42' W 009°25'0 0.0
2017-Nov-10 03:27N 38°42' W 009°25'0 0.0
2017-Nov-10 01:03N 38°42' W 009°25'0 0.1
2017-Nov-10 01:00N 38°42' W 009°25'0 0.0
2017-Nov-09 23:30N 38°42' W 009°25'0 0.0
2017-Nov-09 22:48N 38°42' W 009°25'0 0.0
2017-Nov-09 22:24N 38°42' W 009°25'0 0.0
2017-Nov-09 21:42N 38°42' W 009°25'0 0.0
2017-Nov-09 21:12N 38°42' W 009°25'0 0.0
2017-Nov-09 20:57N 38°42' W 009°25'0 0.0
2017-Nov-09 19:05N 38°42' W 009°25'0 0.0
2017-Nov-09 18:47N 38°42' W 009°25'0 0.0
2017-Nov-09 17:41N 38°42' W 009°25'0 0.0
2017-Nov-09 17:23N 38°42' W 009°25'0 0.0
2017-Nov-09 16:59N 38°42' W 009°25'0 0.0
2017-Nov-09 16:11N 38°42' W 009°25'  

Dump ship's entire track history